Time;durP1;ratioP1;P1;durP2;ratioP2;P2;SDS_P1;SDS_P2;PMS_P1;PMS_P2;Temp;Humidity;BMP_temperature;BMP_pressure;BME280_temperature;BME280_humidity;BME280_pressure;Samples;Min_cycle;Max_cycle;Signal;HPM_P1;HPM_P2
2023/06/02 00:00:41;;;;;;;12.30;4.83;;;;;;;16.16;69.29;99908.32;1751523;82;21651;-82
2023/06/02 00:03:47;;;;;;;14.50;5.10;;;;;;;16.09;69.73;99906.47;1751763;82;21347;-81
2023/06/02 00:06:55;;;;;;;10.15;4.47;;;;;;;15.96;70.14;99914.81;1750625;82;21982;-82
2023/06/02 00:10:02;;;;;;;10.40;4.62;;;;;;;16.14;69.67;99914.58;1751762;82;21345;-81
2023/06/02 00:13:09;;;;;;;13.98;5.22;;;;;;;15.95;70.37;99915.02;1751798;82;21304;-81
2023/06/02 00:16:15;;;;;;;13.28;4.78;;;;;;;15.66;71.24;99912.30;1751161;82;21301;-81
2023/06/02 00:19:20;;;;;;;13.30;5.70;;;;;;;15.56;71.94;99914.96;1751956;82;21935;-80
2023/06/02 00:22:29;;;;;;;10.10;4.90;;;;;;;15.56;72.40;99911.36;1751028;82;21907;-80
2023/06/02 00:25:34;;;;;;;15.35;5.62;;;;;;;15.51;72.88;99913.39;1751747;82;21931;-80
2023/06/02 00:28:40;;;;;;;18.32;6.37;;;;;;;15.42;73.57;99910.56;1751930;82;21312;-80
2023/06/02 00:31:47;;;;;;;10.75;5.65;;;;;;;15.52;73.31;99915.08;1751772;82;21305;-81
2023/06/02 00:34:51;;;;;;;21.68;6.58;;;;;;;15.48;73.57;99913.84;1751707;82;21328;-81
2023/06/02 00:37:57;;;;;;;15.80;5.50;;;;;;;15.47;74.05;99908.00;1750802;82;21324;-81
2023/06/02 00:41:01;;;;;;;15.80;5.47;;;;;;;15.55;74.07;99903.63;1751805;82;21293;-80
2023/06/02 00:44:08;;;;;;;16.45;5.95;;;;;;;15.62;74.04;99906.88;1751763;82;21309;-81
2023/06/02 00:47:15;;;;;;;11.38;5.47;;;;;;;15.54;74.92;99909.37;1750510;82;21341;-81
2023/06/02 00:50:21;;;;;;;10.30;4.75;;;;;;;15.74;74.46;99911.52;1750520;82;21331;-80
2023/06/02 00:53:26;;;;;;;10.98;5.35;;;;;;;15.87;73.97;99913.91;1750681;82;21918;-81
2023/06/02 00:56:32;;;;;;;12.13;5.60;;;;;;;15.89;73.73;99909.02;1751724;82;21687;-80
2023/06/02 00:59:37;;;;;;;9.93;5.05;;;;;;;15.90;73.76;99909.31;1751907;82;21326;-81
2023/06/02 01:02:43;;;;;;;10.78;5.83;;;;;;;15.72;74.57;99901.80;1751931;82;21318;-81
2023/06/02 01:05:51;;;;;;;10.88;5.40;;;;;;;15.63;74.53;99907.22;1751934;82;21297;-80
2023/06/02 01:08:57;;;;;;;12.65;6.30;;;;;;;15.54;74.70;99906.08;1750536;82;21371;-81
2023/06/02 01:12:02;;;;;;;8.93;5.60;;;;;;;15.35;75.58;99911.14;1751935;82;21332;-80
2023/06/02 01:15:09;;;;;;;10.95;4.87;;;;;;;15.38;75.46;99905.17;1737557;82;21891;-81
2023/06/02 01:18:16;;;;;;;9.95;5.62;;;;;;;15.33;75.43;99909.11;1732695;82;21301;-80
2023/06/02 01:21:23;;;;;;;17.00;6.62;;;;;;;15.21;75.87;99913.62;1751301;82;21906;-80
2023/06/02 01:24:31;;;;;;;14.05;6.08;;;;;;;15.37;76.08;99915.05;1751710;82;21313;-80
2023/06/02 01:27:37;;;;;;;16.80;6.58;;;;;;;15.52;75.96;99914.23;1750723;82;21344;-81
2023/06/02 01:30:43;;;;;;;10.90;5.92;;;;;;;15.53;76.56;99911.28;1751255;82;21986;-81
2023/06/02 01:34:02;;;;;;;9.05;6.03;;;;;;;15.56;76.96;99912.20;1751326;82;21352;-81
2023/06/02 01:37:08;;;;;;;16.82;6.40;;;;;;;15.72;76.75;99915.59;1750816;82;21308;-81
2023/06/02 01:40:16;;;;;;;16.75;7.30;;;;;;;15.86;76.58;99913.61;1749976;82;21304;-81
2023/06/02 01:43:21;;;;;;;17.70;8.23;;;;;;;15.89;76.60;99919.50;1751763;82;21863;-81
2023/06/02 01:46:28;;;;;;;15.28;6.50;;;;;;;15.93;76.01;99920.76;1751786;82;21344;-81
2023/06/02 01:49:35;;;;;;;14.43;6.33;;;;;;;15.88;76.19;99917.82;1750781;82;21621;-80
2023/06/02 01:52:41;;;;;;;14.60;6.08;;;;;;;16.06;75.76;99912.41;1751728;82;21352;-80
2023/06/02 01:55:50;;;;;;;12.73;5.67;;;;;;;16.13;75.49;99912.36;1751740;82;21332;-80
2023/06/02 01:58:53;;;;;;;13.53;6.05;;;;;;;16.23;75.19;99916.87;1750390;82;21706;-80
2023/06/02 02:01:59;;;;;;;13.08;6.40;;;;;;;16.26;75.28;99912.27;1750490;82;21343;-80
2023/06/02 02:05:04;;;;;;;12.63;5.67;;;;;;;16.79;74.12;99912.41;1751704;82;21353;-81
2023/06/02 02:08:12;;;;;;;8.65;5.28;;;;;;;17.29;72.92;99907.64;1750909;82;21332;-80
2023/06/02 02:11:16;;;;;;;12.93;6.28;;;;;;;17.41;72.21;99913.78;1751654;82;21863;-80
2023/06/02 02:14:15;;;;;;;19.62;5.67;;;;;;;17.64;71.50;99916.69;1751630;82;21883;-80
2023/06/02 02:17:20;;;;;;;13.38;5.05;;;;;;;17.93;70.86;99917.84;1751662;82;21301;-80
2023/06/02 02:20:26;;;;;;;17.17;5.37;;;;;;;18.50;68.59;99922.42;1751789;82;21308;-80
2023/06/02 02:23:32;;;;;;;11.90;5.03;;;;;;;18.53;67.67;99926.63;1750516;82;21328;-80
2023/06/02 02:26:30;;;;;;;13.55;5.00;;;;;;;18.88;66.18;99922.56;1751693;82;21882;-80
2023/06/02 02:29:37;;;;;;;13.00;5.20;;;;;;;19.32;64.37;99928.56;1751686;82;21851;-81
2023/06/02 02:32:51;;;;;;;14.15;4.53;;;;;;;19.93;62.73;99931.29;1751758;82;21972;-80
2023/06/02 02:35:57;;;;;;;9.58;4.15;;;;;;;20.43;60.25;99933.37;1750123;82;21348;-80
2023/06/02 02:39:03;;;;;;;11.28;4.90;;;;;;;20.55;59.20;99933.31;1750491;82;21340;-80
2023/06/02 02:42:09;;;;;;;10.05;4.42;;;;;;;20.01;60.21;99932.84;1751751;82;21305;-80
2023/06/02 02:45:15;;;;;;;10.63;4.58;;;;;;;19.98;60.29;99929.16;1751702;82;21922;-81
2023/06/02 02:48:20;;;;;;;9.53;4.12;;;;;;;20.17;60.06;99926.48;1751263;82;21343;-80
2023/06/02 02:51:29;;;;;;;8.10;4.22;;;;;;;20.33;56.50;99933.19;1719048;83;21917;-81
2023/06/02 02:54:36;;;;;;;7.40;3.98;;;;;;;20.39;55.49;99930.79;1720560;83;21343;-81
2023/06/02 02:57:41;;;;;;;10.38;4.28;;;;;;;20.80;57.21;99928.21;1721234;83;21334;-80
2023/06/02 03:00:47;;;;;;;7.45;3.90;;;;;;;21.33;55.87;99925.44;1719954;83;22060;-80
2023/06/02 03:03:53;;;;;;;8.35;3.83;;;;;;;21.80;54.11;99926.89;1719985;83;21317;-80
2023/06/02 03:06:59;;;;;;;8.50;3.80;;;;;;;22.06;53.20;99930.25;1719928;83;21319;-80
2023/06/02 03:10:06;;;;;;;9.68;4.22;;;;;;;22.65;52.07;99932.29;1720591;83;21340;-80
2023/06/02 03:13:12;;;;;;;10.10;4.28;;;;;;;22.55;51.47;99933.59;1721455;83;21315;-80
2023/06/02 03:16:18;;;;;;;7.15;4.10;;;;;;;22.61;50.77;99933.92;1721289;83;21649;-81
2023/06/02 03:19:26;;;;;;;8.18;3.60;;;;;;;22.59;50.51;99932.80;1720347;83;21952;-80
2023/06/02 03:22:33;;;;;;;7.65;3.58;;;;;;;22.70;49.58;99932.33;1719873;83;21311;-81
2023/06/02 03:25:40;;;;;;;15.00;3.65;;;;;;;22.97;48.87;99935.11;1720025;83;21378;-80
2023/06/02 03:28:46;;;;;;;5.85;3.35;;;;;;;23.18;48.64;99928.55;1720890;83;21993;-81
2023/06/02 03:31:52;;;;;;;8.50;4.15;;;;;;;23.32;48.43;99928.09;1721369;83;21323;-80
2023/06/02 03:34:58;;;;;;;9.18;3.87;;;;;;;23.49;48.03;99934.89;1721302;83;21326;-81
2023/06/02 03:38:05;;;;;;;7.33;3.65;;;;;;;23.29;48.46;99930.88;1721339;83;21895;-81
2023/06/02 03:41:12;;;;;;;7.97;4.05;;;;;;;23.21;48.52;99938.34;1720226;83;21374;-81
2023/06/02 03:44:18;;;;;;;7.53;3.67;;;;;;;23.46;48.80;99937.66;1721413;83;21930;-80
2023/06/02 03:47:23;;;;;;;8.30;3.15;;;;;;;23.62;48.97;99933.85;1721292;83;21629;-81
2023/06/02 03:50:31;;;;;;;7.17;3.25;;;;;;;23.92;48.84;99937.36;1719921;83;21351;-80
2023/06/02 03:53:39;;;;;;;11.75;3.87;;;;;;;23.94;49.43;99939.86;1742577;82;21335;-80
2023/06/02 03:56:46;;;;;;;11.70;3.35;;;;;;;24.12;49.37;99940.77;1741076;82;21374;-80
2023/06/02 03:59:53;;;;;;;7.33;3.00;;;;;;;24.45;49.05;99939.48;1741579;81;21889;-80
2023/06/02 04:03:01;;;;;;;8.78;3.33;;;;;;;24.73;48.54;99943.71;1742449;82;21332;-80
2023/06/02 04:06:08;;;;;;;5.97;3.27;;;;;;;24.96;47.45;99941.48;1742403;82;21337;-81
2023/06/02 04:09:16;;;;;;;7.80;3.98;;;;;;;25.11;45.92;99940.09;1742362;82;21343;-80
2023/06/02 04:12:22;;;;;;;10.15;2.92;;;;;;;25.33;44.87;99944.00;1742454;82;21314;-81
2023/06/02 04:15:28;;;;;;;6.20;3.20;;;;;;;25.41;44.06;99939.80;1742526;82;21328;-81
2023/06/02 04:18:35;;;;;;;9.58;2.83;;;;;;;25.53;43.01;99942.27;1742526;82;21874;-81
2023/06/02 04:21:41;;;;;;;5.33;2.90;;;;;;;23.92;45.30;99947.70;1742546;82;21307;-81
2023/06/02 04:24:47;;;;;;;8.53;2.77;;;;;;;24.25;44.75;99944.17;1741054;82;21315;-81
2023/06/02 04:27:54;;;;;;;3.47;2.45;;;;;;;24.61;43.42;99947.36;1742328;82;21307;-81
2023/06/02 04:30:58;;;;;;;7.47;2.62;;;;;;;24.69;42.93;99948.17;1741162;82;21363;-81
2023/06/02 04:33:55;;;;;;;10.03;4.12;;;;;;;24.82;42.47;99952.39;1742576;82;21319;-81
2023/06/02 04:37:01;;;;;;;19.23;5.08;;;;;;;24.96;41.95;99959.67;1742567;82;21857;-81
2023/06/02 04:40:06;;;;;;;8.80;4.70;;;;;;;25.37;41.32;99953.52;1742072;82;21351;-80
2023/06/02 04:43:12;;;;;;;12.85;5.83;;;;;;;25.70;41.13;99956.79;1742601;82;21311;-80
2023/06/02 04:46:19;;;;;;;12.85;5.58;;;;;;;25.41;41.60;99953.79;1743143;82;21347;-81
2023/06/02 04:49:26;;;;;;;14.28;6.33;;;;;;;25.64;41.03;99948.97;1742443;82;21358;-81
2023/06/02 04:52:32;;;;;;;24.75;6.55;;;;;;;25.86;40.41;99950.59;1741207;82;21407;-80
2023/06/02 04:55:38;;;;;;;21.37;6.53;;;;;;;26.16;40.12;99949.07;1739621;82;21881;-81
2023/06/02 04:58:45;;;;;;;16.62;6.92;;;;;;;26.23;40.31;99948.73;1739564;82;21335;-80
2023/06/02 05:01:51;;;;;;;13.35;5.80;;;;;;;26.44;40.30;99957.89;1738537;81;21327;-80
2023/06/02 05:04:56;;;;;;;16.65;6.17;;;;;;;26.74;39.73;99960.50;1739680;82;21327;-81
2023/06/02 05:08:03;;;;;;;18.25;5.85;;;;;;;27.08;39.76;99962.50;1738005;82;21873;-81
2023/06/02 05:11:09;;;;;;;17.05;5.75;;;;;;;27.00;39.81;99963.92;1739100;81;21342;-81
2023/06/02 05:14:18;;;;;;;15.28;5.83;;;;;;;27.01;39.84;99960.01;1761577;81;21320;-81
2023/06/02 05:17:31;;;;;;;13.55;5.08;;;;;;;27.14;39.46;99965.52;1728439;81;21311;-81
2023/06/02 05:20:37;;;;;;;18.87;5.78;;;;;;;27.43;37.75;99966.09;1759105;81;21308;-81
2023/06/02 05:23:43;;;;;;;12.78;4.47;;;;;;;27.63;37.22;99959.44;1765998;81;21287;-81
2023/06/02 05:26:49;;;;;;;12.45;4.12;;;;;;;27.88;36.19;99964.78;1755172;81;21322;-81
2023/06/02 05:29:55;;;;;;;15.88;3.98;;;;;;;27.94;35.78;99964.14;1751072;81;21362;-81
2023/06/02 05:33:04;;;;;;;10.38;3.10;;;;;;;28.07;35.17;99969.61;1760014;81;21326;-80
2023/06/02 05:36:09;;;;;;;9.45;3.40;;;;;;;28.36;34.76;99968.13;1728393;81;21868;-80
2023/06/02 05:39:16;;;;;;;8.20;3.58;;;;;;;28.43;34.07;99968.03;1704348;82;21306;-80
2023/06/02 05:42:22;;;;;;;7.42;3.22;;;;;;;28.55;34.38;99966.16;1721893;82;21359;-81
2023/06/02 05:45:28;;;;;;;7.58;3.15;;;;;;;28.57;34.61;99965.88;1795825;78;21315;-81
2023/06/02 05:48:36;;;;;;;17.65;3.52;;;;;;;28.92;33.57;99966.70;1798394;79;21300;-80
2023/06/02 05:51:41;;;;;;;5.55;2.75;;;;;;;29.04;33.29;99962.05;1790313;79;21327;-81
2023/06/02 05:54:47;;;;;;;9.68;2.55;;;;;;;29.35;32.92;99965.72;1778000;79;21350;-81
2023/06/02 05:57:53;;;;;;;7.60;2.70;;;;;;;29.36;31.45;99962.61;1788627;79;21900;-81
2023/06/02 06:01:00;;;;;;;4.95;2.52;;;;;;;29.41;31.64;99965.91;1806081;79;21994;-81
2023/06/02 06:04:07;;;;;;;9.30;2.65;;;;;;;28.42;32.85;99961.28;1778934;80;21302;-80
2023/06/02 06:07:13;;;;;;;8.40;2.45;;;;;;;28.41;33.43;99966.07;1794518;79;21322;-81
2023/06/02 06:10:20;;;;;;;7.20;2.40;;;;;;;28.78;32.40;99965.23;1786451;79;21622;-81
2023/06/02 06:13:26;;;;;;;4.03;2.33;;;;;;;28.71;32.04;99967.61;1800443;79;21898;-80
2023/06/02 06:16:30;;;;;;;4.58;2.58;;;;;;;28.50;32.33;99969.87;1805607;79;21291;-81
2023/06/02 06:19:30;;;;;;;6.87;2.40;;;;;;;28.48;31.55;99965.71;1803339;79;21300;-81
2023/06/02 06:22:37;;;;;;;5.12;2.40;;;;;;;28.42;31.34;99958.47;1804049;79;21865;-80
2023/06/02 06:25:44;;;;;;;6.05;2.00;;;;;;;28.40;31.41;99969.20;1803898;79;21271;-80
2023/06/02 06:28:51;;;;;;;3.90;1.92;;;;;;;28.47;31.93;99965.45;1794330;79;21307;-81
2023/06/02 06:31:57;;;;;;;12.93;2.80;;;;;;;28.46;32.97;99966.56;1798599;79;21358;-81
2023/06/02 06:35:02;;;;;;;6.30;2.20;;;;;;;28.33;32.67;99966.73;1809427;79;21307;-80
2023/06/02 06:38:09;;;;;;;9.45;2.17;;;;;;;28.34;32.28;99967.03;1802752;78;21260;-82
2023/06/02 06:41:14;;;;;;;10.75;2.17;;;;;;;28.28;32.16;99968.22;1800183;79;21930;-81
2023/06/02 06:44:21;;;;;;;5.60;2.08;;;;;;;28.25;31.46;99966.83;1803159;79;22564;-81
2023/06/02 06:47:26;;;;;;;4.35;2.20;;;;;;;28.49;29.66;99961.18;1799930;79;21298;-81
2023/06/02 06:50:35;;;;;;;9.25;2.22;;;;;;;28.56;30.07;99964.17;1789357;78;21373;-81
2023/06/02 06:53:41;;;;;;;12.30;1.98;;;;;;;28.47;28.90;99959.83;1801667;79;21306;-81
2023/06/02 06:56:45;;;;;;;8.28;2.17;;;;;;;28.55;29.89;99967.56;1805561;79;21882;-81
2023/06/02 06:59:54;;;;;;;7.53;1.82;;;;;;;28.58;31.09;99967.53;1794115;79;21282;-81
2023/06/02 07:03:01;;;;;;;6.27;2.43;;;;;;;28.67;30.94;99965.14;1793081;79;21327;-81
2023/06/02 07:06:07;;;;;;;5.08;2.30;;;;;;;28.69;31.53;99973.27;1801465;79;21365;-81
2023/06/02 07:09:12;;;;;;;13.60;2.40;;;;;;;28.61;30.94;99970.59;1800736;79;21323;-81
2023/06/02 07:12:19;;;;;;;4.58;2.08;;;;;;;28.48;31.75;99959.52;1801620;79;21993;-80
2023/06/02 07:15:25;;;;;;;3.65;1.95;;;;;;;28.40;31.58;99960.77;1809162;79;21314;-80
2023/06/02 07:18:31;;;;;;;7.03;2.25;;;;;;;28.45;30.22;99958.70;1795432;79;21311;-80
2023/06/02 07:21:36;;;;;;;4.85;1.92;;;;;;;28.50;29.90;99957.80;1792363;79;21874;-80
2023/06/02 07:24:43;;;;;;;7.08;2.47;;;;;;;28.63;29.78;99956.20;1790258;79;21317;-80
2023/06/02 07:27:49;;;;;;;7.00;2.12;;;;;;;28.46;29.24;99944.89;1808026;79;21275;-80
2023/06/02 07:30:56;;;;;;;9.63;2.27;;;;;;;28.59;30.57;99954.56;1808387;79;21271;-81
2023/06/02 07:34:04;;;;;;;12.18;2.45;;;;;;;28.61;30.07;99953.70;1777082;79;21304;-81
2023/06/02 07:37:12;;;;;;;6.30;2.10;;;;;;;28.58;30.32;99957.12;1808999;79;21293;-80
2023/06/02 07:40:19;;;;;;;3.35;1.80;;;;;;;28.59;30.57;99948.10;1787925;79;21295;-81
2023/06/02 07:43:25;;;;;;;7.92;1.80;;;;;;;28.71;30.24;99955.52;1806472;79;21300;-80
2023/06/02 07:46:31;;;;;;;5.50;2.75;;;;;;;28.78;29.40;99952.56;1807731;79;22097;-81
2023/06/02 07:49:37;;;;;;;7.45;2.20;;;;;;;28.83;28.67;99953.05;1789005;79;21971;-81
2023/06/02 07:52:42;;;;;;;4.53;2.10;;;;;;;28.79;28.56;99946.36;1805900;79;22560;-81
2023/06/02 07:55:51;;;;;;;4.45;1.82;;;;;;;28.68;30.17;99948.52;1802936;79;21335;-81
2023/06/02 07:58:56;;;;;;;4.55;2.40;;;;;;;28.72;30.04;99953.80;1796251;79;21993;-81
2023/06/02 08:02:03;;;;;;;3.60;2.02;;;;;;;28.73;29.83;99947.59;1797425;79;21921;-81
2023/06/02 08:05:10;;;;;;;4.05;1.65;;;;;;;28.73;29.79;99951.24;1789830;79;21893;-81
2023/06/02 08:08:16;;;;;;;8.25;2.40;;;;;;;28.87;30.58;99949.06;1794130;79;21291;-81
2023/06/02 08:11:22;;;;;;;8.48;2.17;;;;;;;28.95;29.71;99954.87;1793010;79;21284;-81
2023/06/02 08:14:29;;;;;;;7.05;2.45;;;;;;;28.98;29.68;99949.17;1791062;78;21310;-81
2023/06/02 08:17:34;;;;;;;6.40;2.20;;;;;;;28.93;28.66;99948.66;1788778;79;21814;-81
2023/06/02 08:20:41;;;;;;;8.60;2.45;;;;;;;28.92;28.70;99954.61;1790959;79;21288;-81
2023/06/02 08:23:48;;;;;;;14.20;2.35;;;;;;;28.97;29.31;99951.73;1779088;78;21345;-81
2023/06/02 08:26:55;;;;;;;9.85;2.70;;;;;;;29.03;28.69;99946.31;1777471;79;21565;-81
2023/06/02 08:30:00;;;;;;;9.83;2.80;;;;;;;28.99;27.20;99948.06;1797927;79;21323;-81
2023/06/02 08:33:09;;;;;;;10.78;2.47;;;;;;;29.12;27.21;99947.82;1730857;81;21334;-81
2023/06/02 08:36:17;;;;;;;8.58;2.85;;;;;;;29.25;28.35;99943.63;1797763;78;21267;-81
2023/06/02 08:39:22;;;;;;;8.20;2.52;;;;;;;29.33;28.35;99937.04;1787726;79;21295;-81
2023/06/02 08:42:28;;;;;;;9.58;2.85;;;;;;;29.40;28.04;99939.69;1731679;82;21391;-81
2023/06/02 08:45:34;;;;;;;6.10;2.30;;;;;;;29.29;28.49;99944.69;1706434;82;21390;-81
2023/06/02 08:48:41;;;;;;;10.05;2.37;;;;;;;29.34;28.38;99940.11;1789277;79;21331;-82
2023/06/02 08:51:47;;;;;;;8.20;2.60;;;;;;;29.32;28.27;99943.83;1710298;81;21332;-81
2023/06/02 08:54:52;;;;;;;8.80;2.98;;;;;;;29.43;26.46;99939.08;1710906;82;21334;-81
2023/06/02 08:57:58;;;;;;;11.80;2.65;;;;;;;29.05;26.44;99936.97;1778785;79;21304;-82
2023/06/02 09:01:03;;;;;;;9.10;2.50;;;;;;;29.02;26.99;99933.34;1790096;79;21334;-81
2023/06/02 09:04:10;;;;;;;8.90;2.65;;;;;;;28.87;27.66;99929.36;1797571;78;21982;-81
2023/06/02 09:07:22;;;;;;;4.67;1.98;;;;;;;28.90;28.56;99931.00;1791118;79;21315;-81
2023/06/02 09:10:42;;;;;;;12.60;2.92;;;;;;;28.82;28.97;99926.64;1792205;79;21882;-81
2023/06/02 09:13:47;;;;;;;11.18;2.22;;;;;;;28.94;28.66;99921.38;1791137;79;21371;-81
2023/06/02 09:16:45;;;;;;;10.90;2.70;;;;;;;29.01;28.91;99931.69;1798422;79;21338;-81
2023/06/02 09:19:57;;;;;;;4.12;2.08;;;;;;;28.97;27.23;99930.05;1794364;79;21307;-81
2023/06/02 09:23:06;;;;;;;9.13;2.67;;;;;;;28.88;27.03;99931.86;1796045;79;21315;-81
2023/06/02 09:26:12;;;;;;;;;;;;;;;28.80;26.05;99927.53;1796283;78;21288;-81
2023/06/02 09:29:19;;;;;;;3.40;1.70;;;;;;;28.73;25.90;99927.90;1766798;79;20306;-81
2023/06/02 09:32:27;;;;;;;6.30;2.33;;;;;;;28.64;26.08;99931.97;1786123;79;21312;-80
2023/06/02 09:35:50;;;;;;;8.00;2.15;;;;;;;28.53;28.03;99922.86;1779779;79;22030;-80
2023/06/02 09:38:58;;;;;;;7.78;2.25;;;;;;;28.66;27.83;99914.23;1728742;81;21328;-80
2023/06/02 09:42:02;;;;;;;6.58;2.40;;;;;;;28.70;26.99;99912.48;1766972;81;21364;-81
2023/06/02 09:45:16;;;;;;;11.50;2.52;;;;;;;28.68;27.06;99902.09;1766435;81;21323;-80
2023/06/02 09:48:29;;;;;;;4.55;2.45;;;;;;;28.56;27.83;99905.09;1768418;81;21335;-81
2023/06/02 09:51:37;;;;;;;14.60;2.10;;;;;;;28.49;29.32;99899.87;1767969;81;22002;-80
2023/06/02 09:54:35;;;;;;;8.00;2.80;;;;;;;28.63;30.30;99899.94;1768277;81;21374;-79
2023/06/02 09:57:26;;;;;;;9.45;2.25;;;;;;;28.74;29.67;99894.39;1761685;81;21386;-81
2023/06/02 10:00:32;;;;;;;8.75;2.45;;;;;;;28.75;28.86;99893.27;1713658;83;21335;-81
2023/06/02 10:03:38;;;;;;;6.72;3.27;;;;;;;28.81;28.10;99894.84;1756740;81;21301;-81
2023/06/02 10:07:22;;;;;;;6.05;2.10;;;;;;;28.80;28.62;99887.55;1756609;81;21318;-80
2023/06/02 10:11:13;;;;;;;4.53;2.17;;;;;;;28.85;27.83;99888.04;1734085;82;21339;-80
2023/06/02 10:14:55;;;;;;;8.28;2.22;;;;;;;28.77;28.03;99890.40;1792647;80;21324;-81
2023/06/02 10:18:54;;;;;;;8.33;2.12;;;;;;;28.91;28.31;99887.63;1795791;80;21942;-80
2023/06/02 10:22:27;;;;;;;6.20;2.25;;;;;;;28.85;29.01;99886.05;1795781;80;21288;-80
2023/06/02 10:26:01;;;;;;;10.35;2.40;;;;;;;29.03;29.16;99889.42;1796894;79;21281;-81
2023/06/02 10:29:09;;;;;;;10.38;2.45;;;;;;;29.08;29.58;99880.59;1789093;79;21336;-81
2023/06/02 10:32:34;;;;;;;9.43;2.20;;;;;;;29.15;29.29;99876.23;1801792;79;21613;-81
2023/06/02 10:36:07;;;;;;;9.80;2.65;;;;;;;29.15;28.62;99880.47;1801562;79;21328;-80
2023/06/02 10:39:48;;;;;;;8.15;2.58;;;;;;;29.16;28.75;99869.45;1801041;79;21275;-81
2023/06/02 10:43:17;;;;;;;;;;;;;;;29.31;28.39;99869.73;1805154;79;21881;-81
2023/06/02 10:46:28;;;;;;;7.03;2.80;;;;;;;29.23;28.30;99870.47;1751221;82;20306;-81
2023/06/02 10:50:05;;;;;;;7.45;2.60;;;;;;;29.23;28.30;99870.47;1750741;82;22055;-81
2023/06/02 10:53:14;;;;;;;5.22;2.30;;;;;;;29.22;27.26;99872.46;1786513;79;21336;-80
2023/06/02 10:56:46;;;;;;;10.90;2.70;;;;;;;29.06;29.14;99875.86;1789865;80;21363;-81
2023/06/02 10:59:52;;;;;;;11.50;2.60;;;;;;;28.99;29.41;99877.69;1790083;79;21375;-81
2023/06/02 11:02:59;;;;;;;10.18;2.52;;;;;;;28.98;28.33;99869.81;1791097;79;21328;-81
2023/06/02 11:05:57;;;;;;;;;;;;;;;28.90;28.15;99864.02;1804072;79;21315;-80
2023/06/02 11:09:04;;;;;;;9.53;2.22;;;;;;;28.83;28.55;99869.20;1792786;79;20264;-80
2023/06/02 11:12:08;;;;;;;7.67;2.30;;;;;;;28.77;29.29;99866.47;1765813;79;21862;-80
2023/06/02 11:15:19;;;;;;;11.73;2.85;;;;;;;28.77;28.87;99866.47;1801755;79;21882;-80
2023/06/02 11:18:35;;;;;;;7.67;2.33;;;;;;;28.80;29.60;99861.39;1799219;79;21307;-80
2023/06/02 11:21:43;;;;;;;9.85;2.85;;;;;;;28.82;29.24;99859.92;1796082;79;21869;-80
2023/06/02 11:24:53;;;;;;;6.15;2.00;;;;;;;28.87;30.35;99863.22;1798132;78;21831;-81
2023/06/02 11:27:53;;;;;;;7.53;2.42;;;;;;;28.97;30.13;99865.88;1788533;79;21595;-81
2023/06/02 11:30:53;;;;;;;10.72;2.20;;;;;;;28.93;29.12;99868.44;1785143;79;21272;-80
2023/06/02 11:34:01;;;;;;;5.30;2.40;;;;;;;28.92;28.63;99861.72;1771412;79;21910;-80
2023/06/02 11:37:24;;;;;;;9.18;3.27;;;;;;;28.94;29.30;99865.91;1794343;78;21319;-81
2023/06/02 11:40:30;;;;;;;7.10;2.67;;;;;;;28.95;28.93;99867.61;1785036;79;21347;-80
2023/06/02 11:43:35;;;;;;;11.73;2.72;;;;;;;29.00;28.97;99861.05;1765846;79;21320;-82
2023/06/02 11:46:42;;;;;;;7.65;2.55;;;;;;;29.07;28.47;99864.28;1791961;79;21280;-82
2023/06/02 11:49:48;;;;;;;5.90;2.52;;;;;;;29.05;28.27;99858.14;1787558;78;21578;-82
2023/06/02 11:52:56;;;;;;;5.40;2.40;;;;;;;28.87;28.00;99860.41;1732546;80;21311;-82
2023/06/02 11:56:04;;;;;;;5.83;2.20;;;;;;;28.80;28.30;99855.77;1727544;81;21384;-82
2023/06/02 11:59:09;;;;;;;6.37;2.35;;;;;;;28.70;28.77;99851.98;1784205;79;22539;-82
2023/06/02 12:02:25;;;;;;;8.35;2.35;;;;;;;28.58;28.56;99854.43;1762588;79;21361;-79
2023/06/02 12:05:47;;;;;;;5.58;2.55;;;;;;;28.43;29.51;99852.70;1773624;79;21888;-79
2023/06/02 12:08:48;;;;;;;11.75;2.27;;;;;;;28.25;29.34;99854.36;1751619;79;21314;-79
2023/06/02 12:11:55;;;;;;;5.90;2.58;;;;;;;28.09;29.52;99847.31;1746208;80;21331;-80
2023/06/02 12:15:00;;;;;;;13.88;2.87;;;;;;;27.95;30.84;99847.80;1750853;81;21875;-80
2023/06/02 12:18:11;;;;;;;11.03;2.80;;;;;;;28.06;31.47;99844.27;1769326;79;21352;-80
2023/06/02 12:21:38;;;;;;;6.47;2.65;;;;;;;28.10;31.49;99840.54;1764232;79;21351;-80
2023/06/02 12:24:43;;;;;;;5.87;2.58;;;;;;;28.06;31.46;99836.66;1758967;79;21307;-80
2023/06/02 12:27:50;;;;;;;6.35;2.50;;;;;;;27.88;31.51;99841.70;1775674;79;22580;-79
2023/06/02 12:30:57;;;;;;;6.42;2.62;;;;;;;27.85;31.79;99839.48;1774499;79;21326;-80
2023/06/02 12:33:55;;;;;;;;;;;;;;;27.87;31.54;99828.22;1773585;79;21341;-80
2023/06/02 12:37:00;;;;;;;13.13;2.83;;;;;;;27.93;31.81;99828.98;1774951;79;20310;-80
2023/06/02 12:40:07;;;;;;;9.08;2.60;;;;;;;27.95;30.59;99828.13;1779340;79;21905;-80
2023/06/02 12:43:14;;;;;;;4.72;2.52;;;;;;;28.00;30.35;99825.23;1767855;79;21271;-80
2023/06/02 12:46:19;;;;;;;6.80;2.37;;;;;;;28.09;30.36;99829.58;1768354;79;21295;-81
2023/06/02 12:49:24;;;;;;;13.45;2.50;;;;;;;28.14;30.54;99830.36;1764408;81;21350;-80
2023/06/02 12:52:30;;;;;;;6.55;2.70;;;;;;;28.13;30.67;99827.26;1785704;79;21304;-80
2023/06/02 12:55:30;;;;;;;5.30;2.30;;;;;;;28.19;30.40;99833.66;1775487;79;21886;-80
2023/06/02 12:58:23;;;;;;;6.85;2.37;;;;;;;28.09;31.07;99832.39;1774646;81;21295;-80
2023/06/02 13:01:10;;;;;;;20.15;3.08;;;;;;;27.97;31.36;99832.86;1784733;79;21311;-80
2023/06/02 13:04:16;;;;;;;7.83;2.87;;;;;;;27.92;31.92;99835.75;1788632;79;21339;-79
2023/06/02 13:07:22;;;;;;;14.00;2.90;;;;;;;27.83;32.61;99830.53;1794481;79;21313;-80
2023/06/02 13:10:29;;;;;;;6.40;2.72;;;;;;;27.66;32.83;99829.02;1743129;81;21295;-80
2023/06/02 13:13:34;;;;;;;5.78;2.75;;;;;;;27.70;32.46;99827.28;1771502;79;21307;-81
2023/06/02 13:16:40;;;;;;;8.00;2.80;;;;;;;27.72;32.11;99821.42;1800798;79;21346;-80
2023/06/02 13:19:47;;;;;;;4.72;2.37;;;;;;;27.78;32.05;99823.58;1800654;79;21964;-80
2023/06/02 13:22:53;;;;;;;9.55;2.58;;;;;;;27.74;31.20;99826.98;1801312;79;21925;-81
2023/06/02 13:25:59;;;;;;;5.78;2.60;;;;;;;27.84;32.53;99823.77;1771031;81;21858;-80
2023/06/02 13:29:04;;;;;;;5.97;2.58;;;;;;;27.81;31.27;99815.94;1789673;79;21299;-80
2023/06/02 13:32:10;;;;;;;5.45;2.85;;;;;;;27.73;31.60;99816.06;1789284;79;21311;-81
2023/06/02 13:35:18;;;;;;;6.67;2.60;;;;;;;27.74;31.50;99813.51;1796265;79;21335;-80
2023/06/02 13:38:23;;;;;;;11.95;2.58;;;;;;;27.74;31.75;99816.31;1797597;78;21346;-80
2023/06/02 13:41:30;;;;;;;5.00;2.50;;;;;;;27.76;32.09;99812.66;1756575;81;21331;-81
2023/06/02 13:44:35;;;;;;;8.75;2.33;;;;;;;27.85;32.44;99812.79;1799896;79;21303;-81
2023/06/02 13:47:40;;;;;;;12.95;2.50;;;;;;;28.05;32.25;99813.91;1801326;79;21288;-80
2023/06/02 13:50:45;;;;;;;3.08;2.10;;;;;;;28.07;30.62;99813.60;1789272;79;21950;-80
2023/06/02 13:53:51;;;;;;;5.53;2.50;;;;;;;28.14;31.03;99802.25;1789796;79;21276;-80
2023/06/02 13:56:56;;;;;;;4.70;2.20;;;;;;;28.18;31.42;99804.72;1801617;79;21296;-80
2023/06/02 14:00:03;;;;;;;3.85;2.45;;;;;;;28.15;30.80;99805.31;1801436;79;21311;-80
2023/06/02 14:03:09;;;;;;;8.98;2.40;;;;;;;27.99;30.71;99800.48;1810414;78;21311;-80
2023/06/02 14:06:15;;;;;;;4.87;2.52;;;;;;;27.97;30.72;99801.94;1814888;79;21316;-80
2023/06/02 14:09:21;;;;;;;3.65;2.22;;;;;;;27.92;31.26;99803.42;1814675;79;21311;-80
2023/06/02 14:12:28;;;;;;;4.58;2.25;;;;;;;27.95;31.13;99801.42;1815972;79;21291;-80
2023/06/02 14:15:33;;;;;;;8.58;3.00;;;;;;;27.85;32.11;99804.36;1815583;79;21303;-79
2023/06/02 14:18:40;;;;;;;5.30;2.37;;;;;;;27.76;31.72;99800.84;1814141;79;21347;-80
2023/06/02 14:21:47;;;;;;;8.75;2.37;;;;;;;27.51;31.68;99800.57;1813618;79;21901;-80
2023/06/02 14:24:46;;;;;;;6.28;2.40;;;;;;;27.53;32.36;99798.89;1815521;79;21303;-80
2023/06/02 14:27:53;;;;;;;6.67;2.33;;;;;;;27.50;32.26;99802.28;1816224;79;21291;-80
2023/06/02 14:30:59;;;;;;;7.28;2.33;;;;;;;27.64;32.20;99798.17;1815149;79;21288;-80
2023/06/02 14:34:06;;;;;;;7.12;2.55;;;;;;;27.49;32.49;99805.67;1816890;79;21272;-79
2023/06/02 14:37:12;;;;;;;13.60;2.50;;;;;;;27.30;32.40;99799.17;1816730;79;21846;-80
2023/06/02 14:40:19;;;;;;;6.50;2.30;;;;;;;27.39;32.72;99793.73;1816658;79;21268;-80